Time;durP1;ratioP1;P1;durP2;ratioP2;P2;SDS_P1;SDS_P2;PMS_P1;PMS_P2;Temp;Humidity;BMP_temperature;BMP_pressure;BME280_temperature;BME280_humidity;BME280_pressure;Samples;Min_cycle;Max_cycle;Signal;HPM_P1;HPM_P2
2022/08/28 00:01:55;;;;;;;11.15;7.00;;;21.40;72.90;;;;;;5032940;28;20084;-10
2022/08/28 00:04:21;;;;;;;13.77;8.73;;;21.40;73.00;;;;;;5032898;28;20575;-9
2022/08/28 00:06:47;;;;;;;11.95;7.45;;;21.40;73.10;;;;;;5032294;28;20034;-11
2022/08/28 00:09:13;;;;;;;10.70;6.53;;;21.40;73.30;;;;;;5032606;28;20040;-11
2022/08/28 00:11:39;;;;;;;14.38;7.88;;;21.40;73.20;;;;;;5031635;28;20061;-10
2022/08/28 00:14:08;;;;;;;13.45;8.40;;;21.40;73.20;;;;;;5033866;28;20130;-10
2022/08/28 00:16:35;;;;;;;10.40;6.60;;;21.40;73.30;;;;;;5036169;28;20045;-11
2022/08/28 00:19:01;;;;;;;11.88;7.68;;;21.40;73.30;;;;;;5035965;28;20022;-11
2022/08/28 00:21:30;;;;;;;11.82;7.38;;;21.40;73.40;;;;;;5037316;28;20340;-11
2022/08/28 00:23:56;;;;;;;9.23;6.63;;;21.40;73.50;;;;;;5036050;28;20486;-10
2022/08/28 00:29:07;;;;;;;8.95;6.75;;;21.40;73.40;;;;;;5035904;28;20060;-10
2022/08/28 00:31:38;;;;;;;10.25;6.85;;;21.40;73.60;;;;;;5036342;28;20033;-9
2022/08/28 00:34:08;;;;;;;10.05;5.95;;;21.40;73.90;;;;;;5036146;28;20033;-10
2022/08/28 00:36:35;;;;;;;8.15;5.68;;;21.30;73.90;;;;;;5036100;28;20027;-10
2022/08/28 00:39:02;;;;;;;8.30;5.80;;;21.30;73.90;;;;;;5035693;28;20108;-11
2022/08/28 00:41:30;;;;;;;8.93;5.90;;;21.30;74.10;;;;;;5035916;28;20025;-11
2022/08/28 00:44:13;;;;;;;9.88;6.68;;;21.30;74.20;;;;;;5035980;28;20021;-10
2022/08/28 00:46:42;;;;;;;9.20;5.88;;;21.30;74.60;;;;;;5035938;28;20052;-10
2022/08/28 00:49:11;;;;;;;9.43;5.65;;;21.30;74.50;;;;;;5035611;28;20095;-10
2022/08/28 00:54:23;;;;;;;10.88;6.82;;;21.30;74.60;;;;;;5035813;28;20047;-9
2022/08/28 00:56:52;;;;;;;9.23;6.03;;;21.30;74.60;;;;;;5035467;28;20099;-10
2022/08/28 00:59:22;;;;;;;9.98;6.43;;;21.30;74.60;;;;;;5035436;28;20108;-10
2022/08/28 01:01:48;;;;;;;9.18;5.95;;;21.30;74.60;;;;;;5035374;28;20503;-10
2022/08/28 01:04:17;;;;;;;10.60;6.28;;;21.30;74.70;;;;;;5035645;28;20035;-10
2022/08/28 01:06:47;;;;;;;9.77;6.60;;;21.30;74.70;;;;;;5035246;28;20068;-10
2022/08/28 01:09:14;;;;;;;9.50;6.00;;;21.30;74.80;;;;;;5035590;28;20037;-9
2022/08/28 01:11:44;;;;;;;10.10;6.70;;;21.20;74.90;;;;;;5035356;28;20040;-10
2022/08/28 01:14:12;;;;;;;9.57;6.50;;;21.20;75.00;;;;;;5034976;28;20037;-10
2022/08/28 01:16:41;;;;;;;9.55;6.35;;;21.20;75.10;;;;;;5035385;28;20049;-10
2022/08/28 01:19:14;;;;;;;10.63;5.95;;;21.20;75.00;;;;;;5034895;28;20028;-10
2022/08/28 01:21:49;;;;;;;;;;;21.20;75.00;;;;;;5035414;28;20379;-10
2022/08/28 01:24:17;;;;;;;9.95;6.32;;;21.20;75.50;;;;;;5034975;28;19912;-9
2022/08/28 01:26:43;;;;;;;8.90;6.15;;;21.20;75.10;;;;;;5033803;28;20057;-11
2022/08/28 01:29:11;;;;;;;10.50;6.60;;;21.20;75.00;;;;;;5034925;28;20095;-10
2022/08/28 01:31:39;;;;;;;9.23;6.20;;;21.20;75.10;;;;;;5034795;28;20033;-10
2022/08/28 01:34:07;;;;;;;10.57;6.57;;;21.20;75.20;;;;;;5034678;28;20444;-10
2022/08/28 01:36:34;;;;;;;12.50;6.50;;;21.30;75.20;;;;;;5033472;28;20385;-10
2022/08/28 01:39:06;;;;;;;10.43;6.75;;;21.30;75.40;;;;;;5034392;28;20628;-10
2022/08/28 01:41:34;;;;;;;8.97;6.40;;;21.30;75.50;;;;;;5034940;28;20033;-10
2022/08/28 01:44:00;;;;;;;11.75;7.60;;;21.30;75.30;;;;;;5034805;28;20473;-10
2022/08/28 01:46:26;;;;;;;11.95;7.47;;;21.30;75.20;;;;;;5034496;28;20386;-10
2022/08/28 01:48:53;;;;;;;10.45;6.60;;;21.30;75.00;;;;;;5034532;28;20079;-11
2022/08/28 01:51:19;;;;;;;9.85;6.45;;;21.40;75.00;;;;;;5034676;28;20040;-10
2022/08/28 01:53:45;;;;;;;10.65;6.50;;;21.40;75.10;;;;;;5034908;28;20469;-10
2022/08/28 01:56:14;;;;;;;9.20;6.63;;;21.40;75.10;;;;;;5034219;28;20040;-10
2022/08/28 01:58:40;;;;;;;9.32;6.40;;;21.40;74.90;;;;;;5034258;28;20028;-10
2022/08/28 02:01:15;;;;;;;10.05;6.40;;;21.40;74.90;;;;;;5034325;28;20021;-10
2022/08/28 02:03:42;;;;;;;11.15;5.80;;;21.40;74.90;;;;;;5034193;28;20024;-10
2022/08/28 02:06:09;;;;;;;8.52;5.90;;;21.40;74.90;;;;;;5034474;28;20030;-10
2022/08/28 02:08:35;;;;;;;10.10;6.25;;;21.40;74.90;;;;;;5034776;28;20088;-11
2022/08/28 02:11:05;;;;;;;9.75;5.97;;;21.40;74.90;;;;;;5033759;28;20041;-11
2022/08/28 02:13:31;;;;;;;11.93;7.05;;;21.40;75.00;;;;;;5033915;28;20033;-10
2022/08/28 02:15:57;;;;;;;9.60;6.45;;;21.40;75.00;;;;;;5034003;28;20057;-10
2022/08/28 02:18:24;;;;;;;11.57;7.57;;;21.40;75.10;;;;;;5034162;28;20033;-10
2022/08/28 02:20:50;;;;;;;11.15;7.40;;;21.40;75.20;;;;;;5033892;28;20037;-10
2022/08/28 02:23:17;;;;;;;13.23;8.48;;;21.40;75.20;;;;;;5034948;28;20044;-10
2022/08/28 02:25:42;;;;;;;15.68;10.30;;;21.40;75.50;;;;;;5034493;28;20057;-10
2022/08/28 02:28:08;;;;;;;16.55;10.07;;;21.30;75.50;;;;;;5033732;28;20068;-10
2022/08/28 02:30:37;;;;;;;12.07;8.25;;;21.30;75.60;;;;;;5034063;28;20029;-10
2022/08/28 02:33:03;;;;;;;12.48;7.43;;;21.30;75.70;;;;;;5033483;28;20056;-11
2022/08/28 02:35:30;;;;;;;14.98;9.48;;;21.20;75.80;;;;;;5034067;28;20066;-10
2022/08/28 02:37:56;;;;;;;13.35;8.20;;;21.20;75.90;;;;;;5033681;28;20017;-10
2022/08/28 02:40:24;;;;;;;12.93;8.50;;;21.10;76.00;;;;;;5033720;28;20017;-9
2022/08/28 02:42:50;;;;;;;11.45;7.68;;;21.10;76.10;;;;;;5033162;28;20017;-10
2022/08/28 02:45:18;;;;;;;13.65;8.02;;;21.00;76.20;;;;;;5033474;28;20060;-10
2022/08/28 02:47:46;;;;;;;12.73;8.65;;;21.00;76.20;;;;;;5033435;28;20496;-10
2022/08/28 02:50:16;;;;;;;14.00;8.70;;;21.00;76.20;;;;;;5033714;28;20063;-10
2022/08/28 02:52:42;;;;;;;16.00;10.25;;;20.90;76.20;;;;;;5033415;28;20550;-10
2022/08/28 02:55:11;;;;;;;16.48;10.50;;;20.90;76.30;;;;;;5033467;28;20033;-10
2022/08/28 02:57:37;;;;;;;12.80;8.10;;;20.90;76.40;;;;;;5033189;28;20561;-10
2022/08/28 03:00:10;;;;;;;12.52;7.95;;;20.90;76.50;;;;;;5033492;28;20032;-10
2022/08/28 03:02:37;;;;;;;;;;;20.80;76.60;;;;;;5034361;28;20040;-10
2022/08/28 03:05:04;;;;;;;11.52;7.75;;;20.90;76.60;;;;;;5032992;28;19909;-10
2022/08/28 03:07:30;;;;;;;13.45;8.63;;;20.90;76.70;;;;;;5033150;28;20033;-9
2022/08/28 03:09:56;;;;;;;11.65;7.82;;;20.80;76.70;;;;;;5033460;28;20382;-10
2022/08/28 03:12:23;;;;;;;11.05;7.80;;;20.80;76.80;;;;;;5031675;28;20058;-10
2022/08/28 03:14:53;;;;;;;13.18;8.93;;;20.80;76.90;;;;;;5032897;28;20034;-10
2022/08/28 03:17:20;;;;;;;11.95;8.43;;;20.70;76.90;;;;;;5033093;28;20022;-11
2022/08/28 03:19:48;;;;;;;12.57;8.60;;;20.70;77.10;;;;;;5033344;28;20037;-10
2022/08/28 03:22:16;;;;;;;14.77;8.88;;;20.60;77.20;;;;;;5032999;28;20474;-10
2022/08/28 03:24:43;;;;;;;11.95;7.80;;;20.60;77.30;;;;;;5033218;28;20511;-10
2022/08/28 03:27:10;;;;;;;11.68;7.65;;;20.50;77.40;;;;;;5032976;28;20033;-9
2022/08/28 03:29:37;;;;;;;12.15;6.97;;;20.40;77.50;;;;;;5031673;28;20232;-10
2022/08/28 03:32:03;;;;;;;11.30;7.25;;;20.40;77.70;;;;;;5032852;28;20037;-10
2022/08/28 03:34:28;;;;;;;14.23;8.10;;;20.40;77.80;;;;;;5033148;28;20074;-10
2022/08/28 03:36:54;;;;;;;12.23;7.95;;;20.40;78.10;;;;;;5033266;28;20083;-10
2022/08/28 03:39:20;;;;;;;14.52;8.35;;;20.30;78.10;;;;;;5033116;28;20022;-10
2022/08/28 03:41:46;;;;;;;10.05;6.57;;;20.30;78.50;;;;;;5032756;28;20021;-9
2022/08/28 03:44:12;;;;;;;12.35;8.18;;;20.20;78.40;;;;;;5031581;28;20160;-10
2022/08/28 03:46:38;;;;;;;10.88;7.68;;;20.20;78.40;;;;;;5032790;28;20528;-10
2022/08/28 03:49:04;;;;;;;11.00;7.57;;;20.10;78.50;;;;;;5033712;28;20116;-10
2022/08/28 03:51:32;;;;;;;11.52;7.60;;;20.10;78.60;;;;;;5036961;28;20104;-10
2022/08/28 03:54:00;;;;;;;11.20;7.80;;;20.00;78.80;;;;;;5036867;28;20029;-10
2022/08/28 03:56:28;;;;;;;16.55;9.40;;;20.00;78.90;;;;;;5036484;28;20029;-9
2022/08/28 03:58:57;;;;;;;14.20;8.85;;;19.90;79.00;;;;;;5036720;28;20385;-10
2022/08/28 04:01:24;;;;;;;13.85;9.43;;;19.90;79.20;;;;;;5036757;28;20040;-10
2022/08/28 04:03:50;;;;;;;10.52;7.15;;;19.80;79.30;;;;;;5036879;28;20104;-10
2022/08/28 04:06:18;;;;;;;10.85;7.30;;;19.70;79.40;;;;;;5036384;28;20125;-11
2022/08/28 04:08:44;;;;;;;11.65;7.68;;;19.70;79.40;;;;;;5036660;28;20487;-10
2022/08/28 04:11:10;;;;;;;13.70;7.13;;;19.60;79.50;;;;;;5036318;28;20147;-10
2022/08/28 04:13:36;;;;;;;10.10;6.90;;;19.60;79.60;;;;;;5036207;28;20030;-10
2022/08/28 04:16:09;;;;;;;11.00;7.50;;;19.60;79.50;;;;;;5036531;28;20025;-10
2022/08/28 04:18:39;;;;;;;12.65;7.80;;;19.50;79.50;;;;;;5036220;28;20518;-10
2022/08/28 04:21:15;;;;;;;12.52;7.63;;;19.50;79.60;;;;;;5034749;28;20432;-10
2022/08/28 04:23:42;;;;;;;15.00;9.85;;;19.50;79.70;;;;;;5036669;28;20036;-10
2022/08/28 04:26:11;;;;;;;14.02;8.25;;;19.40;79.80;;;;;;5036205;28;20030;-10
2022/08/28 04:28:37;;;;;;;12.20;7.82;;;19.40;79.80;;;;;;5035759;28;20053;-10
2022/08/28 04:31:04;;;;;;;12.35;7.97;;;19.40;80.00;;;;;;5035994;28;20030;-10
2022/08/28 04:33:31;;;;;;;10.95;7.43;;;19.30;80.10;;;;;;5035854;28;20458;-9
2022/08/28 04:36:01;;;;;;;10.70;7.60;;;19.30;80.10;;;;;;5035873;28;20068;-10
2022/08/28 04:38:28;;;;;;;12.25;8.10;;;19.30;80.10;;;;;;5036986;28;20034;-10
2022/08/28 04:40:54;;;;;;;13.82;9.32;;;19.30;80.20;;;;;;5035501;28;20473;-11
2022/08/28 04:43:20;;;;;;;12.68;8.48;;;19.20;80.10;;;;;;5036207;28;20093;-10
2022/08/28 04:45:46;;;;;;;11.98;8.05;;;19.20;80.30;;;;;;5035702;28;20115;-10
2022/08/28 04:48:13;;;;;;;11.10;7.35;;;19.20;80.60;;;;;;5035849;28;20057;-10
2022/08/28 04:50:44;;;;;;;12.40;8.20;;;19.10;80.50;;;;;;5035855;28;20034;-10
2022/08/28 04:53:11;;;;;;;13.23;8.70;;;19.10;80.60;;;;;;5035341;28;20029;-10
2022/08/28 04:55:47;;;;;;;13.93;8.18;;;19.10;80.70;;;;;;5036211;28;20037;-10
2022/08/28 04:58:13;;;;;;;12.95;8.38;;;19.20;80.80;;;;;;5035633;28;20032;-10
2022/08/28 05:00:45;;;;;;;14.75;9.73;;;19.20;80.80;;;;;;5035314;28;20033;-10
2022/08/28 05:03:12;;;;;;;11.57;8.20;;;19.10;80.90;;;;;;5035782;28;20014;-11
2022/08/28 05:05:46;;;;;;;12.43;8.35;;;19.10;80.80;;;;;;5035552;28;20052;-11
2022/08/28 05:08:14;;;;;;;14.02;9.40;;;19.10;80.90;;;;;;5035307;28;20032;-10
2022/08/28 05:10:42;;;;;;;13.10;8.52;;;19.10;81.00;;;;;;5035555;28;20072;-10
2022/08/28 05:13:10;;;;;;;12.38;7.88;;;19.10;80.90;;;;;;5034835;28;20048;-10
2022/08/28 05:15:40;;;;;;;11.02;7.22;;;19.10;81.20;;;;;;5035428;28;20057;-10
2022/08/28 05:18:06;;;;;;;12.68;8.30;;;19.20;81.00;;;;;;5035648;28;20026;-10
2022/08/28 05:20:37;;;;;;;14.25;8.93;;;19.20;81.20;;;;;;5034975;28;20105;-10
2022/08/28 05:23:06;;;;;;;13.35;8.65;;;19.20;81.00;;;;;;5035057;28;20025;-10
2022/08/28 05:25:40;;;;;;;14.77;9.85;;;19.20;81.10;;;;;;5035218;28;20117;-10
2022/08/28 05:28:08;;;;;;;14.30;8.82;;;19.20;81.30;;;;;;5035724;28;20540;-10
2022/08/28 05:30:36;;;;;;;14.50;9.10;;;19.20;81.20;;;;;;5035167;28;20127;-10
2022/08/28 05:33:04;;;;;;;15.15;9.50;;;19.30;81.40;;;;;;5034519;28;20494;-10
2022/08/28 05:35:34;;;;;;;15.13;9.73;;;19.30;81.70;;;;;;5035008;28;20113;-10
2022/08/28 05:38:00;;;;;;;17.92;9.68;;;19.30;81.20;;;;;;5034674;28;20033;-10
2022/08/28 05:40:26;;;;;;;18.25;9.80;;;19.30;81.10;;;;;;5034773;28;20029;-10
2022/08/28 05:42:53;;;;;;;28.98;12.63;;;19.30;81.20;;;;;;5034255;28;20022;-11
2022/08/28 05:45:21;;;;;;;14.85;9.70;;;19.40;81.40;;;;;;5034855;28;20045;-10
2022/08/28 05:47:47;;;;;;;20.73;10.23;;;19.40;81.40;;;;;;5034776;28;20033;-10
2022/08/28 05:50:14;;;;;;;18.52;12.57;;;19.40;81.30;;;;;;5034893;28;20367;-10
2022/08/28 05:52:42;;;;;;;17.70;11.38;;;19.50;81.10;;;;;;5034494;28;20561;-10
2022/08/28 05:55:10;;;;;;;15.57;9.85;;;19.50;81.20;;;;;;5034446;28;20406;-10
2022/08/28 05:57:38;;;;;;;16.27;10.07;;;19.60;81.20;;;;;;5034524;28;20040;-11
2022/08/28 06:00:06;;;;;;;16.30;11.23;;;19.60;81.20;;;;;;5034266;28;20022;-10
2022/08/28 06:02:33;;;;;;;24.25;14.95;;;19.70;81.10;;;;;;5034254;28;20370;-11
2022/08/28 06:05:00;;;;;;;24.27;14.95;;;19.80;81.20;;;;;;5034261;28;20103;-10
2022/08/28 06:07:26;;;;;;;20.92;13.68;;;19.90;81.10;;;;;;5034425;28;20026;-11
2022/08/28 06:09:52;;;;;;;20.38;12.65;;;20.00;81.00;;;;;;5034451;28;20022;-10
2022/08/28 06:12:18;;;;;;;18.08;11.70;;;20.10;81.10;;;;;;5033384;28;20033;-10
2022/08/28 06:14:44;;;;;;;20.23;13.00;;;20.30;80.60;;;;;;5034833;28;20025;-9
2022/08/28 06:17:10;;;;;;;22.85;15.35;;;20.40;81.30;;;;;;5034043;28;20026;-10
2022/08/28 06:19:36;;;;;;;20.15;14.50;;;20.60;82.10;;;;;;5033911;28;20482;-10
2022/08/28 06:22:04;;;;;;;21.55;14.88;;;20.90;81.70;;;;;;5034149;28;20028;-10
2022/08/28 06:24:31;;;;;;;23.20;16.10;;;21.10;81.80;;;;;;5034885;28;20025;-10
2022/08/28 06:26:58;;;;;;;18.80;13.48;;;21.40;80.20;;;;;;5033533;28;20029;-10
2022/08/28 06:29:26;;;;;;;20.67;12.90;;;21.70;80.20;;;;;;5033709;28;20072;-10
2022/08/28 06:31:54;;;;;;;22.65;14.65;;;22.00;79.40;;;;;;5034505;28;20112;-10
2022/08/28 06:34:21;;;;;;;22.98;14.63;;;22.40;78.60;;;;;;5033900;28;20069;-11
2022/08/28 06:36:47;;;;;;;21.88;13.15;;;22.70;77.60;;;;;;5033917;28;20037;-10
2022/08/28 06:39:14;;;;;;;20.88;13.55;;;23.00;76.90;;;;;;5033530;28;20381;-10
2022/08/28 06:41:42;;;;;;;15.63;10.90;;;23.40;75.50;;;;;;5033721;28;20102;-10
2022/08/28 06:44:13;;;;;;;15.20;10.80;;;23.60;74.00;;;;;;5033826;28;20033;-9
2022/08/28 06:46:40;;;;;;;14.43;10.35;;;23.90;73.00;;;;;;5033716;28;20033;-10
2022/08/28 06:49:08;;;;;;;13.85;9.13;;;24.20;71.30;;;;;;5033280;28;20033;-9
2022/08/28 06:51:34;;;;;;;14.20;9.77;;;24.40;70.70;;;;;;5033455;28;20014;-10
2022/08/28 06:54:01;;;;;;;11.48;8.15;;;24.60;70.00;;;;;;5033208;28;20429;-10
2022/08/28 06:56:27;;;;;;;16.88;10.25;;;24.80;69.00;;;;;;5033376;28;20076;-10
2022/08/28 06:58:55;;;;;;;14.85;10.20;;;24.90;67.90;;;;;;5031872;28;20025;-10
2022/08/28 07:01:36;;;;;;;12.82;9.35;;;25.10;67.60;;;;;;5033260;28;20481;-10
2022/08/28 07:04:06;;;;;;;13.10;8.77;;;25.30;66.80;;;;;;5033267;28;20409;-10
2022/08/28 07:06:37;;;;;;;12.40;8.60;;;25.40;66.80;;;;;;5033246;28;20079;-10
2022/08/28 07:09:06;;;;;;;14.02;9.18;;;25.70;66.30;;;;;;5032986;28;20500;-10
2022/08/28 07:11:34;;;;;;;13.48;8.93;;;26.00;65.40;;;;;;5033002;28;20381;-9
2022/08/28 07:14:02;;;;;;;12.80;8.68;;;26.30;64.70;;;;;;5033039;28;20445;-10
2022/08/28 07:16:32;;;;;;;13.02;9.07;;;26.50;64.40;;;;;;5033244;28;20029;-10
2022/08/28 07:18:58;;;;;;;11.68;8.02;;;26.60;63.10;;;;;;5032961;28;20092;-9
2022/08/28 07:21:27;;;;;;;13.65;9.60;;;26.70;62.70;;;;;;5033293;28;20021;-10
2022/08/28 07:23:54;;;;;;;12.35;8.25;;;26.90;61.70;;;;;;5034105;28;20485;-10
2022/08/28 07:26:24;;;;;;;12.52;8.38;;;27.10;60.70;;;;;;5037020;28;20030;-10
2022/08/28 07:28:52;;;;;;;12.23;8.48;;;27.30;59.50;;;;;;5036927;28;20076;-10
2022/08/28 07:31:24;;;;;;;13.25;8.88;;;27.40;59.50;;;;;;5037433;28;20091;-10
2022/08/28 07:33:51;;;;;;;12.45;8.35;;;27.40;59.20;;;;;;5037339;28;20497;-10
2022/08/28 07:36:21;;;;;;;11.60;8.57;;;27.40;58.70;;;;;;5037036;28;20512;-10
2022/08/28 07:38:47;;;;;;;13.70;8.00;;;27.30;58.10;;;;;;5037009;28;20024;-9
2022/08/28 07:41:25;;;;;;;11.13;7.18;;;27.30;58.50;;;;;;5036919;28;20034;-9
2022/08/28 07:46:37;;;;;;;12.32;8.15;;;27.50;58.00;;;;;;5037170;28;20100;-10
2022/08/28 07:49:04;;;;;;;10.25;7.15;;;27.70;57.30;;;;;;5036811;28;20025;-10
2022/08/28 07:51:30;;;;;;;10.98;6.82;;;27.70;57.60;;;;;;5036671;28;20116;-10
2022/08/28 07:53:56;;;;;;;8.23;6.60;;;27.80;57.20;;;;;;5036572;28;20116;-10
2022/08/28 07:56:25;;;;;;;11.93;6.78;;;27.90;56.90;;;;;;5036801;28;20022;-10
2022/08/28 07:58:51;;;;;;;8.57;6.43;;;27.90;56.10;;;;;;5036300;28;20018;-10
2022/08/28 08:01:17;;;;;;;10.00;7.10;;;28.00;55.80;;;;;;5036533;28;20101;-11
2022/08/28 08:03:43;;;;;;;10.32;6.68;;;28.00;54.70;;;;;;5036471;28;20033;-11
2022/08/28 08:06:11;;;;;;;11.00;6.85;;;28.00;54.50;;;;;;5036464;28;20064;-11
2022/08/28 08:08:39;;;;;;;10.85;6.78;;;28.00;55.50;;;;;;5036408;28;20490;-9
2022/08/28 08:11:09;;;;;;;9.43;6.97;;;28.00;55.10;;;;;;5036482;28;20018;-9
2022/08/28 08:13:38;;;;;;;11.18;7.18;;;28.10;55.40;;;;;;5034983;28;20499;-10
2022/08/28 08:16:10;;;;;;;10.38;6.85;;;28.30;54.80;;;;;;5036222;28;20079;-10
2022/08/28 08:18:37;;;;;;;10.43;7.03;;;28.30;54.80;;;;;;5036321;28;20481;-10
2022/08/28 08:21:05;;;;;;;10.43;6.65;;;28.50;54.50;;;;;;5036283;28;20025;-11
2022/08/28 08:23:33;;;;;;;11.77;7.47;;;28.60;52.90;;;;;;5036426;28;20024;-10
2022/08/28 08:26:03;;;;;;;10.00;7.13;;;28.60;53.90;;;;;;5036387;28;20493;-10
2022/08/28 08:28:30;;;;;;;10.20;7.25;;;28.80;54.00;;;;;;5035708;28;20401;-11
2022/08/28 08:31:06;;;;;;;10.02;7.18;;;28.90;53.10;;;;;;5035831;28;20076;-10
2022/08/28 08:33:34;;;;;;;10.68;7.32;;;29.00;53.70;;;;;;5036150;28;20064;-10
2022/08/28 08:36:00;;;;;;;10.70;7.70;;;28.90;53.70;;;;;;5035896;28;20037;-10
2022/08/28 08:38:30;;;;;;;10.13;7.18;;;29.00;53.60;;;;;;5036144;28;20061;-10
2022/08/28 08:40:59;;;;;;;12.85;8.55;;;29.00;53.80;;;;;;5035896;28;20048;-10
2022/08/28 08:43:29;;;;;;;11.90;7.82;;;29.00;54.20;;;;;;5035753;28;20569;-10
2022/08/28 08:45:55;;;;;;;10.95;8.30;;;29.20;54.10;;;;;;5036059;28;20033;-10
2022/08/28 08:48:32;;;;;;;11.95;7.45;;;29.30;52.80;;;;;;5035882;28;20040;-10
2022/08/28 08:51:05;;;;;;;11.13;7.70;;;29.50;52.50;;;;;;5036121;28;20076;-10
2022/08/28 08:53:50;;;;;;;11.32;7.20;;;29.70;52.60;;;;;;5035517;28;20485;-9
2022/08/28 08:56:20;;;;;;;12.02;7.70;;;29.80;51.60;;;;;;5035818;28;20032;-10
2022/08/28 08:58:52;;;;;;;11.55;7.43;;;29.90;52.50;;;;;;5035528;28;20041;-11
2022/08/28 09:01:30;;;;;;;10.43;7.90;;;30.10;51.80;;;;;;5035808;28;20044;-10
2022/08/28 09:04:01;;;;;;;10.95;8.68;;;30.40;50.80;;;;;;5036014;28;20021;-10
2022/08/28 09:06:49;;;;;;;10.98;7.90;;;30.50;50.70;;;;;;5035696;28;20029;-11
2022/08/28 09:09:36;;;;;;;11.23;7.43;;;30.40;50.00;;;;;;5035342;28;20075;-10
2022/08/28 09:12:29;;;;;;;10.13;7.40;;;30.60;49.80;;;;;;5033931;28;20074;-10
2022/08/28 09:15:04;;;;;;;9.63;7.07;;;30.70;48.50;;;;;;5035178;28;20378;-10
2022/08/28 09:17:43;;;;;;;11.32;6.80;;;30.90;49.70;;;;;;5035137;28;20489;-10
2022/08/28 09:20:13;;;;;;;8.40;6.13;;;31.00;49.10;;;;;;5035107;28;20056;-10
2022/08/28 09:22:44;;;;;;;10.13;7.03;;;31.40;48.80;;;;;;5035004;28;20033;-10
2022/08/28 09:25:12;;;;;;;8.40;6.60;;;31.50;48.00;;;;;;5034881;28;20104;-10
2022/08/28 09:27:51;;;;;;;9.93;6.65;;;31.70;47.80;;;;;;5034794;28;20025;-10
2022/08/28 09:30:30;;;;;;;10.27;6.72;;;31.90;46.80;;;;;;5035363;28;20094;-10
2022/08/28 09:32:59;;;;;;;10.25;6.75;;;32.00;46.10;;;;;;5035218;28;20121;-10
2022/08/28 09:35:27;;;;;;;9.82;6.68;;;32.30;45.20;;;;;;5034765;28;20394;-10
2022/08/28 09:37:54;;;;;;;10.73;6.88;;;32.60;45.20;;;;;;5035006;28;20128;-10
2022/08/28 09:43:25;;;;;;;8.68;6.32;;;32.90;44.10;;;;;;5034668;28;20525;-10
2022/08/28 09:43:27;;;;;;;10.23;6.90;;;32.90;44.70;;;;;;5034754;28;20040;-10
2022/08/28 09:45:58;;;;;;;8.57;5.90;;;33.00;44.60;;;;;;5034342;28;20026;-10
2022/08/28 09:48:40;;;;;;;10.02;6.50;;;33.20;44.40;;;;;;5034164;28;20034;-10
2022/08/28 09:51:20;;;;;;;7.93;6.05;;;33.40;44.10;;;;;;5034412;28;20013;-10
2022/08/28 09:53:52;;;;;;;11.40;7.00;;;33.60;41.90;;;;;;5034401;28;20490;-10
2022/08/28 09:56:28;;;;;;;8.98;5.40;;;33.70;43.00;;;;;;5034545;28;20125;-11
2022/08/28 09:59:15;;;;;;;9.15;6.10;;;33.80;43.20;;;;;;5034140;28;20068;-9
2022/08/28 10:01:41;;;;;;;8.35;6.38;;;34.00;42.30;;;;;;5034329;28;20025;-9
2022/08/28 10:04:23;;;;;;;8.38;6.03;;;34.00;42.60;;;;;;5034538;28;20075;-10
2022/08/28 10:07:24;;;;;;;8.63;5.93;;;34.00;42.10;;;;;;5034119;28;20520;-10
2022/08/28 10:10:15;;;;;;;12.02;6.18;;;34.20;40.90;;;;;;5034491;28;20030;-10
2022/08/28 10:13:08;;;;;;;8.13;5.50;;;34.40;39.10;;;;;;5034285;28;20030;-11
2022/08/28 10:15:54;;;;;;;7.22;5.70;;;34.50;41.60;;;;;;5034079;28;20059;-10
2022/08/28 10:18:48;;;;;;;8.70;6.00;;;34.70;40.80;;;;;;5032820;28;20512;-11
2022/08/28 10:21:28;;;;;;;7.90;5.93;;;34.80;38.00;;;;;;5034221;28;20033;-10
2022/08/28 10:24:25;;;;;;;8.38;6.10;;;34.70;40.20;;;;;;5033967;28;20116;-10
2022/08/28 10:27:11;;;;;;;8.15;5.97;;;34.80;39.80;;;;;;5033566;28;20029;-10
2022/08/28 10:29:52;;;;;;;10.10;6.47;;;34.70;39.30;;;;;;5033907;28;20065;-10
2022/08/28 10:32:27;;;;;;;8.43;6.18;;;34.50;39.50;;;;;;5033579;28;20029;-10
2022/08/28 10:35:12;;;;;;;8.65;5.93;;;34.30;40.20;;;;;;5032248;28;20098;-10
2022/08/28 10:38:07;;;;;;;9.85;6.32;;;34.10;41.30;;;;;;5033943;28;20072;-10
2022/08/28 10:40:40;;;;;;;8.82;5.72;;;34.40;40.20;;;;;;5033938;28;20014;-10
2022/08/28 10:43:13;;;;;;;9.18;6.03;;;34.60;41.10;;;;;;5033673;28;20033;-10
2022/08/28 10:45:41;;;;;;;13.55;6.88;;;34.90;40.80;;;;;;5034399;28;20017;-11
2022/08/28 10:48:19;;;;;;;9.70;6.20;;;34.90;40.10;;;;;;5033445;28;20031;-10
2022/08/28 10:50:51;;;;;;;8.27;6.35;;;34.80;39.90;;;;;;5033826;28;20025;-10
2022/08/28 10:53:38;;;;;;;8.87;5.90;;;34.20;40.80;;;;;;5033375;28;20103;-9
2022/08/28 10:56:22;;;;;;;10.63;6.00;;;34.10;41.40;;;;;;5033666;28;20100;-10
2022/08/28 10:58:53;;;;;;;9.43;6.68;;;34.40;41.30;;;;;;5033117;28;20481;-10
2022/08/28 11:01:30;;;;;;;9.18;6.22;;;34.50;40.40;;;;;;5033666;28;20029;-10
2022/08/28 11:04:00;;;;;;;8.23;5.82;;;34.90;39.80;;;;;;5033669;28;20029;-10
2022/08/28 11:07:08;;;;;;;7.28;5.35;;;35.00;40.10;;;;;;5033229;28;20021;-10
2022/08/28 11:09:46;;;;;;;9.00;5.57;;;35.40;38.60;;;;;;5031142;28;20029;-10
2022/08/28 11:12:18;;;;;;;8.57;6.30;;;36.00;37.90;;;;;;5030946;28;20562;-10
2022/08/28 11:14:52;;;;;;;8.98;6.07;;;36.50;37.60;;;;;;5031038;28;20044;-10
2022/08/28 11:17:21;;;;;;;9.13;6.32;;;36.70;37.80;;;;;;5031129;28;20029;-10
2022/08/28 11:19:51;;;;;;;8.80;6.07;;;36.80;37.40;;;;;;5030992;28;20041;-10
2022/08/28 11:22:33;;;;;;;7.65;5.72;;;37.00;37.10;;;;;;5031010;28;20068;-10
2022/08/28 11:25:17;;;;;;;9.63;6.20;;;37.20;36.10;;;;;;5030801;28;20021;-10
2022/08/28 11:28:11;;;;;;;7.90;5.82;;;37.10;35.50;;;;;;5031357;28;20136;-9
2022/08/28 11:30:38;;;;;;;10.77;6.03;;;37.60;34.90;;;;;;5030678;28;20049;-10
2022/08/28 11:33:25;;;;;;;9.13;6.15;;;37.90;34.40;;;;;;5031011;28;20129;-10
2022/08/28 11:35:51;;;;;;;8.45;5.65;;;38.20;34.10;;;;;;5030395;28;20030;-10
2022/08/28 11:38:42;;;;;;;7.68;5.93;;;38.10;34.70;;;;;;5031095;28;20034;-10
2022/08/28 11:41:35;;;;;;;11.23;6.63;;;38.30;34.10;;;;;;5030572;28;20072;-10
2022/08/28 11:44:11;;;;;;;9.07;5.75;;;38.30;34.40;;;;;;5030774;28;20057;-9
2022/08/28 11:47:22;;;;;;;10.40;6.20;;;38.60;34.20;;;;;;5032499;28;20026;-9
2022/08/28 11:49:48;;;;;;;8.77;6.10;;;38.40;33.90;;;;;;5032354;28;20474;-10
2022/08/28 11:52:51;;;;;;;9.40;6.28;;;38.40;34.50;;;;;;5032583;28;20056;-10
2022/08/28 11:55:31;;;;;;;10.90;6.43;;;38.60;33.80;;;;;;5033526;28;20025;-10
2022/08/28 11:58:11;;;;;;;9.55;6.68;;;38.60;33.80;;;;;;5032593;28;20402;-9
2022/08/28 12:01:01;;;;;;;8.38;6.30;;;38.40;33.90;;;;;;5032904;28;20017;-10
2022/08/28 12:03:37;;;;;;;9.65;5.80;;;38.40;33.90;;;;;;5032699;28;20029;-10
2022/08/28 12:06:04;;;;;;;8.10;5.40;;;38.40;33.90;;;;;;5033223;28;20092;-10
2022/08/28 12:08:59;;;;;;;8.18;6.43;;;38.20;34.40;;;;;;5032965;28;20034;-10
2022/08/28 12:11:47;;;;;;;7.90;5.80;;;38.00;34.20;;;;;;5035894;28;20034;-10
2022/08/28 12:14:25;;;;;;;9.63;6.30;;;37.70;34.40;;;;;;5037228;28;20112;-9
2022/08/28 12:17:08;;;;;;;8.00;6.40;;;37.50;35.10;;;;;;5036043;28;20041;-9
2022/08/28 12:20:13;;;;;;;8.07;6.32;;;37.50;34.80;;;;;;5036284;28;20029;-10
2022/08/28 12:22:51;;;;;;;7.80;5.53;;;37.70;34.30;;;;;;5035544;28;20035;-10
2022/08/28 12:25:37;;;;;;;7.47;5.93;;;38.00;35.10;;;;;;5036482;28;20036;-10
2022/08/28 12:28:27;;;;;;;9.55;5.85;;;38.30;34.50;;;;;;5036357;28;20033;-10
2022/08/28 12:31:14;;;;;;;9.80;5.97;;;38.90;33.80;;;;;;5034633;28;20447;-10
2022/08/28 12:34:00;;;;;;;7.72;6.00;;;39.50;32.90;;;;;;5036349;28;20069;-10
2022/08/28 12:36:27;;;;;;;8.20;5.65;;;40.20;31.30;;;;;;5035959;28;20053;-10
2022/08/28 12:38:59;;;;;;;7.07;5.47;;;40.70;30.90;;;;;;5035636;28;20500;-10
2022/08/28 12:41:26;;;;;;;8.95;5.93;;;40.90;30.80;;;;;;5036508;28;20072;-10
2022/08/28 12:43:58;;;;;;;6.95;5.60;;;41.00;30.80;;;;;;5035602;28;20026;-10
2022/08/28 12:46:28;;;;;;;;;;;41.20;30.80;;;;;;5036258;28;20482;-10
2022/08/28 12:48:58;;;;;;;7.57;5.45;;;41.50;29.80;;;;;;5035580;28;20380;-10
2022/08/28 12:51:36;;;;;;;8.60;5.38;;;41.60;30.20;;;;;;5035664;28;20030;-10
2022/08/28 12:54:07;;;;;;;8.38;5.25;;;41.70;28.80;;;;;;5035878;28;20108;-10
2022/08/28 12:56:36;;;;;;;8.35;5.30;;;41.40;30.50;;;;;;5035496;28;20030;-12
2022/08/28 12:59:36;;;;;;;7.80;5.20;;;41.00;30.40;;;;;;5035331;28;20022;-10
2022/08/28 13:02:23;;;;;;;8.30;5.40;;;40.70;30.90;;;;;;5033656;28;20033;-10
2022/08/28 13:05:02;;;;;;;7.72;5.30;;;40.60;30.10;;;;;;5033292;28;20043;-10
2022/08/28 13:07:36;;;;;;;7.68;5.53;;;40.20;30.70;;;;;;5033121;28;20096;-10
2022/08/28 13:10:52;;;;;;;6.63;5.10;;;39.90;31.10;;;;;;5033639;28;20034;-10
2022/08/28 13:13:22;;;;;;;9.70;5.50;;;39.80;30.80;;;;;;4974789;28;20134;-10